sensor_id;sensor_type;location;lat;lon;timestamp;pressure;altitude;pressure_sealevel;temperature;humidity
7200;BME280;3641;49.082;8.200;2023-04-04T00:01:43;101326.59;;;3.39;54.53
7200;BME280;3641;49.082;8.200;2023-04-04T00:04:09;101329.13;;;3.30;54.40
7200;BME280;3641;49.082;8.200;2023-04-04T00:06:36;101327.75;;;3.24;54.62
7200;BME280;3641;49.082;8.200;2023-04-04T00:09:08;101323.66;;;3.42;54.07
7200;BME280;3641;49.082;8.200;2023-04-04T00:11:36;101321.03;;;3.30;53.51
7200;BME280;3641;49.082;8.200;2023-04-04T00:14:02;101314.28;;;3.11;55.07
7200;BME280;3641;49.082;8.200;2023-04-04T00:16:29;101309.13;;;3.08;54.96
7200;BME280;3641;49.082;8.200;2023-04-04T00:18:56;101314.09;;;3.01;54.12
7200;BME280;3641;49.082;8.200;2023-04-04T00:21:22;101312.53;;;3.23;54.78
7200;BME280;3641;49.082;8.200;2023-04-04T00:23:51;101313.09;;;3.15;54.11
7200;BME280;3641;49.082;8.200;2023-04-04T00:26:18;101303.53;;;2.98;55.05
7200;BME280;3641;49.082;8.200;2023-04-04T00:28:46;101310.16;;;3.18;54.50
7200;BME280;3641;49.082;8.200;2023-04-04T00:31:13;101300.56;;;3.14;55.46
7200;BME280;3641;49.082;8.200;2023-04-04T00:33:40;101300.88;;;2.85;55.21
7200;BME280;3641;49.082;8.200;2023-04-04T00:36:06;101300.69;;;2.76;55.59
7200;BME280;3641;49.082;8.200;2023-04-04T00:38:33;101291.69;;;2.88;54.98
7200;BME280;3641;49.082;8.200;2023-04-04T00:40:59;101293.84;;;2.96;54.57
7200;BME280;3641;49.082;8.200;2023-04-04T00:43:26;101299.00;;;2.99;54.88
7200;BME280;3641;49.082;8.200;2023-04-04T00:45:54;101292.94;;;3.08;54.60
7200;BME280;3641;49.082;8.200;2023-04-04T00:48:21;101297.16;;;2.99;54.42
7200;BME280;3641;49.082;8.200;2023-04-04T00:50:49;101294.34;;;3.01;55.10
7200;BME280;3641;49.082;8.200;2023-04-04T00:53:15;101294.44;;;3.12;54.76
7200;BME280;3641;49.082;8.200;2023-04-04T00:55:42;101294.31;;;3.14;55.03
7200;BME280;3641;49.082;8.200;2023-04-04T00:58:09;101294.44;;;2.75;56.00
7200;BME280;3641;49.082;8.200;2023-04-04T01:00:36;101293.59;;;2.62;55.31
7200;BME280;3641;49.082;8.200;2023-04-04T01:03:04;101294.44;;;2.75;55.14
7200;BME280;3641;49.082;8.200;2023-04-04T01:05:34;101289.25;;;2.72;55.39
7200;BME280;3641;49.082;8.200;2023-04-04T01:08:00;101293.56;;;2.87;55.33
7200;BME280;3641;49.082;8.200;2023-04-04T01:10:29;101291.53;;;2.65;55.22
7200;BME280;3641;49.082;8.200;2023-04-04T01:12:55;101294.34;;;2.64;55.41
7200;BME280;3641;49.082;8.200;2023-04-04T01:15:22;101292.53;;;2.51;56.56
7200;BME280;3641;49.082;8.200;2023-04-04T01:17:49;101294.03;;;2.68;56.05
7200;BME280;3641;49.082;8.200;2023-04-04T01:20:22;101291.81;;;2.86;56.00
7200;BME280;3641;49.082;8.200;2023-04-04T01:22:51;101290.88;;;2.75;55.96
7200;BME280;3641;49.082;8.200;2023-04-04T01:25:25;101300.31;;;2.43;56.07
7200;BME280;3641;49.082;8.200;2023-04-04T01:27:54;101291.34;;;2.56;57.14
7200;BME280;3641;49.082;8.200;2023-04-04T01:30:22;101283.03;;;2.59;56.33
7200;BME280;3641;49.082;8.200;2023-04-04T01:32:52;101285.28;;;2.52;57.03
7200;BME280;3641;49.082;8.200;2023-04-04T01:35:28;101286.94;;;2.29;56.94
7200;BME280;3641;49.082;8.200;2023-04-04T01:38:07;101282.72;;;2.25;56.43
7200;BME280;3641;49.082;8.200;2023-04-04T01:40:40;101285.97;;;2.17;57.34
7200;BME280;3641;49.082;8.200;2023-04-04T01:43:10;101284.16;;;2.05;56.96
7200;BME280;3641;49.082;8.200;2023-04-04T01:45:37;101274.09;;;2.45;56.45
7200;BME280;3641;49.082;8.200;2023-04-04T01:48:05;101283.47;;;1.88;57.39
7200;BME280;3641;49.082;8.200;2023-04-04T01:50:32;101285.97;;;2.04;57.36
7200;BME280;3641;49.082;8.200;2023-04-04T01:52:58;101279.41;;;2.34;57.02
7200;BME280;3641;49.082;8.200;2023-04-04T01:55:25;101285.84;;;1.80;57.44
7200;BME280;3641;49.082;8.200;2023-04-04T01:57:53;101280.94;;;1.99;57.78
7200;BME280;3641;49.082;8.200;2023-04-04T02:00:19;101280.94;;;2.25;56.74
7200;BME280;3641;49.082;8.200;2023-04-04T02:02:46;101280.56;;;1.91;58.18
7200;BME280;3641;49.082;8.200;2023-04-04T02:05:12;101274.66;;;2.25;57.43
7200;BME280;3641;49.082;8.200;2023-04-04T02:07:39;101274.75;;;2.23;57.13
7200;BME280;3641;49.082;8.200;2023-04-04T02:10:06;101277.56;;;2.22;56.88
7200;BME280;3641;49.082;8.200;2023-04-04T02:12:33;101280.16;;;2.23;56.94
7200;BME280;3641;49.082;8.200;2023-04-04T02:15:01;101273.38;;;2.30;56.53
7200;BME280;3641;49.082;8.200;2023-04-04T02:17:27;101275.09;;;2.18;57.24
7200;BME280;3641;49.082;8.200;2023-04-04T02:19:54;101281.13;;;2.09;57.05
7200;BME280;3641;49.082;8.200;2023-04-04T02:22:20;101275.84;;;2.33;57.27
7200;BME280;3641;49.082;8.200;2023-04-04T02:24:47;101281.25;;;2.21;56.78
7200;BME280;3641;49.082;8.200;2023-04-04T02:27:13;101274.34;;;2.16;57.21
7200;BME280;3641;49.082;8.200;2023-04-04T02:29:40;101271.84;;;2.26;56.30
7200;BME280;3641;49.082;8.200;2023-04-04T02:32:08;101267.03;;;2.31;56.58
7200;BME280;3641;49.082;8.200;2023-04-04T02:34:34;101261.97;;;2.27;56.75
7200;BME280;3641;49.082;8.200;2023-04-04T02:37:01;101270.31;;;1.71;57.38
7200;BME280;3641;49.082;8.200;2023-04-04T02:39:29;101271.66;;;2.04;57.87
7200;BME280;3641;49.082;8.200;2023-04-04T02:41:55;101270.47;;;1.82;58.79
7200;BME280;3641;49.082;8.200;2023-04-04T02:44:22;101269.59;;;2.07;57.63
7200;BME280;3641;49.082;8.200;2023-04-04T02:46:48;101269.16;;;2.13;56.84
7200;BME280;3641;49.082;8.200;2023-04-04T02:49:16;101270.47;;;2.08;57.06
7200;BME280;3641;49.082;8.200;2023-04-04T02:51:42;101266.56;;;1.86;58.15
7200;BME280;3641;49.082;8.200;2023-04-04T02:54:09;101262.19;;;1.98;57.72
7200;BME280;3641;49.082;8.200;2023-04-04T02:56:36;101262.59;;;2.05;57.02
7200;BME280;3641;49.082;8.200;2023-04-04T02:59:03;101265.84;;;2.10;57.19
7200;BME280;3641;49.082;8.200;2023-04-04T03:01:30;101268.28;;;1.74;57.14
7200;BME280;3641;49.082;8.200;2023-04-04T03:03:56;101261.28;;;1.72;57.35
7200;BME280;3641;49.082;8.200;2023-04-04T03:06:24;101263.66;;;2.02;57.30
7200;BME280;3641;49.082;8.200;2023-04-04T03:08:50;101263.34;;;1.94;56.76
7200;BME280;3641;49.082;8.200;2023-04-04T03:11:17;101268.94;;;1.78;57.02
7200;BME280;3641;49.082;8.200;2023-04-04T03:13:45;101261.78;;;1.64;57.62
7200;BME280;3641;49.082;8.200;2023-04-04T03:16:12;101269.75;;;1.66;57.75
7200;BME280;3641;49.082;8.200;2023-04-04T03:18:39;101272.59;;;1.77;57.48
7200;BME280;3641;49.082;8.200;2023-04-04T03:21:06;101269.28;;;1.99;57.55
7200;BME280;3641;49.082;8.200;2023-04-04T03:23:33;101273.91;;;1.97;57.27
7200;BME280;3641;49.082;8.200;2023-04-04T03:26:00;101268.09;;;1.90;57.15
7200;BME280;3641;49.082;8.200;2023-04-04T03:28:27;101274.41;;;1.76;57.54
7200;BME280;3641;49.082;8.200;2023-04-04T03:30:53;101271.41;;;1.81;57.69
7200;BME280;3641;49.082;8.200;2023-04-04T03:33:20;101273.47;;;1.77;57.33
7200;BME280;3641;49.082;8.200;2023-04-04T03:35:46;101277.28;;;1.60;58.60
7200;BME280;3641;49.082;8.200;2023-04-04T03:38:13;101275.16;;;1.66;57.73
7200;BME280;3641;49.082;8.200;2023-04-04T03:40:40;101280.31;;;1.56;57.62
7200;BME280;3641;49.082;8.200;2023-04-04T03:43:07;101274.53;;;1.75;58.44
7200;BME280;3641;49.082;8.200;2023-04-04T03:45:34;101272.47;;;1.78;58.46
7200;BME280;3641;49.082;8.200;2023-04-04T03:48:01;101278.44;;;1.84;57.27
7200;BME280;3641;49.082;8.200;2023-04-04T03:50:28;101273.47;;;1.77;57.84
7200;BME280;3641;49.082;8.200;2023-04-04T03:52:55;101274.06;;;1.55;57.85
7200;BME280;3641;49.082;8.200;2023-04-04T03:55:22;101284.09;;;1.66;57.93
7200;BME280;3641;49.082;8.200;2023-04-04T03:57:50;101277.63;;;1.69;57.48
7200;BME280;3641;49.082;8.200;2023-04-04T04:00:16;101278.38;;;1.31;59.24
7200;BME280;3641;49.082;8.200;2023-04-04T04:02:43;101281.41;;;1.66;58.00
7200;BME280;3641;49.082;8.200;2023-04-04T04:05:09;101283.28;;;1.51;58.48
7200;BME280;3641;49.082;8.200;2023-04-04T04:07:36;101283.72;;;1.45;57.69
7200;BME280;3641;49.082;8.200;2023-04-04T04:10:03;101283.31;;;0.97;59.66
7200;BME280;3641;49.082;8.200;2023-04-04T04:12:30;101285.47;;;1.19;59.60
7200;BME280;3641;49.082;8.200;2023-04-04T04:14:58;101283.97;;;1.27;59.14
7200;BME280;3641;49.082;8.200;2023-04-04T04:17:25;101287.28;;;1.18;60.49
7200;BME280;3641;49.082;8.200;2023-04-04T04:19:51;101280.03;;;1.33;60.56
7200;BME280;3641;49.082;8.200;2023-04-04T04:22:18;101282.88;;;1.17;61.25
7200;BME280;3641;49.082;8.200;2023-04-04T04:24:44;101289.88;;;0.78;62.33
7200;BME280;3641;49.082;8.200;2023-04-04T04:27:11;101285.66;;;0.88;62.09
7200;BME280;3641;49.082;8.200;2023-04-04T04:29:37;101288.38;;;0.60;62.26
7200;BME280;3641;49.082;8.200;2023-04-04T04:32:05;101284.31;;;0.67;62.72
7200;BME280;3641;49.082;8.200;2023-04-04T04:34:32;101278.09;;;0.66;63.31
7200;BME280;3641;49.082;8.200;2023-04-04T04:36:59;101285.53;;;0.90;62.49
7200;BME280;3641;49.082;8.200;2023-04-04T04:39:25;101287.09;;;1.21;61.75
7200;BME280;3641;49.082;8.200;2023-04-04T04:41:51;101279.13;;;0.78;63.68
7200;BME280;3641;49.082;8.200;2023-04-04T04:44:18;101282.53;;;0.53;64.34
7200;BME280;3641;49.082;8.200;2023-04-04T04:46:45;101285.53;;;0.34;65.68
7200;BME280;3641;49.082;8.200;2023-04-04T04:49:13;101286.66;;;0.59;66.05
7200;BME280;3641;49.082;8.200;2023-04-04T04:51:39;101289.13;;;0.62;66.04
7200;BME280;3641;49.082;8.200;2023-04-04T04:54:06;101292.59;;;0.64;65.25
7200;BME280;3641;49.082;8.200;2023-04-04T04:56:33;101291.47;;;0.25;66.91
7200;BME280;3641;49.082;8.200;2023-04-04T04:58:59;101294.03;;;0.55;65.73
7200;BME280;3641;49.082;8.200;2023-04-04T05:01:26;101298.63;;;0.82;63.81
7200;BME280;3641;49.082;8.200;2023-04-04T05:03:52;101293.63;;;0.76;63.37
7200;BME280;3641;49.082;8.200;2023-04-04T05:06:20;101300.44;;;0.67;64.15
7200;BME280;3641;49.082;8.200;2023-04-04T05:08:47;101295.34;;;0.91;62.76
7200;BME280;3641;49.082;8.200;2023-04-04T05:11:13;101296.00;;;0.95;63.18
7200;BME280;3641;49.082;8.200;2023-04-04T05:13:39;101296.63;;;0.57;65.60
7200;BME280;3641;49.082;8.200;2023-04-04T05:16:06;101296.31;;;0.76;64.27
7200;BME280;3641;49.082;8.200;2023-04-04T05:18:32;101300.63;;;0.78;63.31
7200;BME280;3641;49.082;8.200;2023-04-04T05:20:59;101297.84;;;0.80;63.62
7200;BME280;3641;49.082;8.200;2023-04-04T05:23:27;101303.22;;;0.80;62.09
7200;BME280;3641;49.082;8.200;2023-04-04T05:25:53;101293.09;;;0.56;66.42
7200;BME280;3641;49.082;8.200;2023-04-04T05:28:20;101292.56;;;0.78;64.45
7200;BME280;3641;49.082;8.200;2023-04-04T05:30:46;101294.16;;;0.95;63.03
7200;BME280;3641;49.082;8.200;2023-04-04T05:33:13;101298.75;;;0.66;64.56
7200;BME280;3641;49.082;8.200;2023-04-04T05:35:39;101300.16;;;0.71;63.18
7200;BME280;3641;49.082;8.200;2023-04-04T05:38:06;101307.63;;;0.81;64.48
7200;BME280;3641;49.082;8.200;2023-04-04T05:40:34;101302.94;;;0.70;64.50
7200;BME280;3641;49.082;8.200;2023-04-04T05:43:01;101297.09;;;0.78;63.30
7200;BME280;3641;49.082;8.200;2023-04-04T05:45:28;101301.97;;;0.85;63.32
7200;BME280;3641;49.082;8.200;2023-04-04T05:47:55;101301.03;;;0.72;65.84
7200;BME280;3641;49.082;8.200;2023-04-04T05:50:21;101299.94;;;0.89;63.40
7200;BME280;3641;49.082;8.200;2023-04-04T05:52:48;101307.44;;;0.84;62.97
7200;BME280;3641;49.082;8.200;2023-04-04T05:55:14;101307.34;;;0.85;64.18
7200;BME280;3641;49.082;8.200;2023-04-04T05:57:47;101309.19;;;0.85;62.89
7200;BME280;3641;49.082;8.200;2023-04-04T06:00:15;101312.59;;;1.01;62.80
7200;BME280;3641;49.082;8.200;2023-04-04T06:02:42;101311.47;;;0.91;65.44
7200;BME280;3641;49.082;8.200;2023-04-04T06:05:09;101312.13;;;0.95;62.99
7200;BME280;3641;49.082;8.200;2023-04-04T06:07:35;101319.59;;;1.04;62.22
7200;BME280;3641;49.082;8.200;2023-04-04T06:10:02;101312.72;;;1.27;61.66
7200;BME280;3641;49.082;8.200;2023-04-04T06:12:29;101310.41;;;1.21;63.28
7200;BME280;3641;49.082;8.200;2023-04-04T06:14:57;101307.53;;;1.24;61.84
7200;BME280;3641;49.082;8.200;2023-04-04T06:17:23;101316.34;;;1.26;61.42
7200;BME280;3641;49.082;8.200;2023-04-04T06:19:50;101312.25;;;1.48;60.34
7200;BME280;3641;49.082;8.200;2023-04-04T06:22:18;101308.03;;;1.43;61.12
7200;BME280;3641;49.082;8.200;2023-04-04T06:24:45;101318.47;;;1.48;61.53
7200;BME280;3641;49.082;8.200;2023-04-04T06:27:12;101311.75;;;1.28;61.39
7200;BME280;3641;49.082;8.200;2023-04-04T06:29:38;101313.19;;;1.47;61.11
7200;BME280;3641;49.082;8.200;2023-04-04T06:32:07;101311.44;;;1.60;60.77
7200;BME280;3641;49.082;8.200;2023-04-04T06:34:33;101316.50;;;1.65;60.32
7200;BME280;3641;49.082;8.200;2023-04-04T06:37:00;101318.88;;;1.69;59.59
7200;BME280;3641;49.082;8.200;2023-04-04T06:39:26;101314.53;;;1.54;59.55
7200;BME280;3641;49.082;8.200;2023-04-04T06:41:53;101313.03;;;1.62;59.08
7200;BME280;3641;49.082;8.200;2023-04-04T06:44:20;101307.22;;;1.56;58.33
7200;BME280;3641;49.082;8.200;2023-04-04T06:46:46;101312.06;;;1.63;58.97
7200;BME280;3641;49.082;8.200;2023-04-04T06:49:14;101312.75;;;1.80;57.85
7200;BME280;3641;49.082;8.200;2023-04-04T06:51:41;101311.69;;;1.83;57.25
7200;BME280;3641;49.082;8.200;2023-04-04T06:54:07;101318.16;;;2.06;58.28
7200;BME280;3641;49.082;8.200;2023-04-04T06:56:34;101316.56;;;2.03;57.76
7200;BME280;3641;49.082;8.200;2023-04-04T06:59:00;101318.63;;;2.12;58.20
7200;BME280;3641;49.082;8.200;2023-04-04T07:01:27;101309.13;;;2.07;57.14
7200;BME280;3641;49.082;8.200;2023-04-04T07:03:54;101313.66;;;2.06;57.18
7200;BME280;3641;49.082;8.200;2023-04-04T07:06:22;101310.09;;;2.06;56.17
7200;BME280;3641;49.082;8.200;2023-04-04T07:08:50;101306.88;;;2.13;56.50
7200;BME280;3641;49.082;8.200;2023-04-04T07:11:17;101304.28;;;2.12;57.39
7200;BME280;3641;49.082;8.200;2023-04-04T07:13:44;101307.09;;;2.36;57.35
7200;BME280;3641;49.082;8.200;2023-04-04T07:16:10;101306.34;;;2.34;56.18
7200;BME280;3641;49.082;8.200;2023-04-04T07:18:37;101306.75;;;2.41;55.77
7200;BME280;3641;49.082;8.200;2023-04-04T07:21:03;101306.31;;;2.47;55.57
7200;BME280;3641;49.082;8.200;2023-04-04T07:23:31;101305.78;;;2.54;54.24
7200;BME280;3641;49.082;8.200;2023-04-04T07:25:58;101303.00;;;2.43;54.79
7200;BME280;3641;49.082;8.200;2023-04-04T07:28:24;101307.22;;;2.47;54.14
7200;BME280;3641;49.082;8.200;2023-04-04T07:30:51;101304.72;;;2.57;54.74
7200;BME280;3641;49.082;8.200;2023-04-04T07:33:17;101296.06;;;2.65;53.45
7200;BME280;3641;49.082;8.200;2023-04-04T07:35:44;101299.63;;;2.65;53.93
7200;BME280;3641;49.082;8.200;2023-04-04T07:38:11;101300.75;;;2.87;53.93
7200;BME280;3641;49.082;8.200;2023-04-04T07:40:38;101294.19;;;2.91;54.57
7200;BME280;3641;49.082;8.200;2023-04-04T07:43:05;101289.44;;;2.82;53.44
7200;BME280;3641;49.082;8.200;2023-04-04T07:45:31;101294.81;;;2.95;54.05
7200;BME280;3641;49.082;8.200;2023-04-04T07:47:58;101283.16;;;2.94;53.28
7200;BME280;3641;49.082;8.200;2023-04-04T07:50:24;101288.50;;;2.83;52.27
7200;BME280;3641;49.082;8.200;2023-04-04T07:52:51;101286.81;;;2.93;52.42
7200;BME280;3641;49.082;8.200;2023-04-04T07:55:19;101284.97;;;3.06;51.93
7200;BME280;3641;49.082;8.200;2023-04-04T07:57:50;101287.13;;;3.01;51.64
7200;BME280;3641;49.082;8.200;2023-04-04T08:00:18;101287.84;;;3.16;52.52
7200;BME280;3641;49.082;8.200;2023-04-04T08:02:46;101287.38;;;3.22;51.08
7200;BME280;3641;49.082;8.200;2023-04-04T08:05:16;101287.78;;;3.05;51.16
7200;BME280;3641;49.082;8.200;2023-04-04T08:07:43;101289.38;;;3.32;53.69
7200;BME280;3641;49.082;8.200;2023-04-04T08:10:09;101293.91;;;3.31;51.54
7200;BME280;3641;49.082;8.200;2023-04-04T08:12:36;101284.84;;;3.32;51.30
7200;BME280;3641;49.082;8.200;2023-04-04T08:15:05;101285.09;;;3.29;50.19
7200;BME280;3641;49.082;8.200;2023-04-04T08:17:32;101283.41;;;3.39;50.99
7200;BME280;3641;49.082;8.200;2023-04-04T08:19:58;101292.00;;;3.44;50.35
7200;BME280;3641;49.082;8.200;2023-04-04T08:22:25;101272.59;;;3.39;48.18
7200;BME280;3641;49.082;8.200;2023-04-04T08:24:52;101288.72;;;3.52;48.56
7200;BME280;3641;49.082;8.200;2023-04-04T08:27:18;101287.59;;;3.43;48.39
7200;BME280;3641;49.082;8.200;2023-04-04T08:29:45;101284.06;;;3.78;50.03
7200;BME280;3641;49.082;8.200;2023-04-04T08:32:13;101288.94;;;3.73;47.76
7200;BME280;3641;49.082;8.200;2023-04-04T08:34:40;101285.28;;;3.86;48.44
7200;BME280;3641;49.082;8.200;2023-04-04T08:37:06;101295.91;;;3.64;47.31
7200;BME280;3641;49.082;8.200;2023-04-04T08:39:33;101289.81;;;3.74;47.46
7200;BME280;3641;49.082;8.200;2023-04-04T08:42:01;101295.94;;;3.76;47.33
7200;BME280;3641;49.082;8.200;2023-04-04T08:44:30;101281.53;;;3.99;47.84
7200;BME280;3641;49.082;8.200;2023-04-04T08:46:58;101295.38;;;3.95;47.12
7200;BME280;3641;49.082;8.200;2023-04-04T08:49:27;101296.16;;;4.08;47.78
7200;BME280;3641;49.082;8.200;2023-04-04T08:51:56;101285.56;;;3.94;46.25
7200;BME280;3641;49.082;8.200;2023-04-04T08:54:24;101284.81;;;3.92;46.04
7200;BME280;3641;49.082;8.200;2023-04-04T08:56:52;101282.59;;;3.86;44.29
7200;BME280;3641;49.082;8.200;2023-04-04T08:59:18;101285.56;;;3.94;45.11
7200;BME280;3641;49.082;8.200;2023-04-04T09:01:46;101290.84;;;4.07;46.00
7200;BME280;3641;49.082;8.200;2023-04-04T09:04:12;101281.19;;;4.04;46.12
7200;BME280;3641;49.082;8.200;2023-04-04T09:06:40;101285.22;;;4.21;47.37
7200;BME280;3641;49.082;8.200;2023-04-04T09:09:07;101281.81;;;4.19;45.55
7200;BME280;3641;49.082;8.200;2023-04-04T09:11:34;101286.72;;;4.25;46.15
7200;BME280;3641;49.082;8.200;2023-04-04T09:14:02;101286.13;;;4.33;46.34
7200;BME280;3641;49.082;8.200;2023-04-04T09:16:30;101279.59;;;4.24;45.26
7200;BME280;3641;49.082;8.200;2023-04-04T09:18:56;101274.84;;;4.39;45.96
7200;BME280;3641;49.082;8.200;2023-04-04T09:21:23;101277.41;;;4.52;46.03
7200;BME280;3641;49.082;8.200;2023-04-04T09:23:58;101268.78;;;4.35;44.35
7200;BME280;3641;49.082;8.200;2023-04-04T09:26:25;101275.81;;;4.49;46.94
7200;BME280;3641;49.082;8.200;2023-04-04T09:28:51;101281.31;;;4.59;45.76
7200;BME280;3641;49.082;8.200;2023-04-04T09:31:18;101273.09;;;4.72;45.13
7200;BME280;3641;49.082;8.200;2023-04-04T09:33:47;101278.25;;;4.75;44.23
7200;BME280;3641;49.082;8.200;2023-04-04T09:36:14;101277.50;;;4.84;46.44
7200;BME280;3641;49.082;8.200;2023-04-04T09:38:41;101277.25;;;4.87;46.32
7200;BME280;3641;49.082;8.200;2023-04-04T09:41:12;101280.94;;;4.86;44.74
7200;BME280;3641;49.082;8.200;2023-04-04T09:43:40;101282.28;;;4.92;44.78
7200;BME280;3641;49.082;8.200;2023-04-04T09:46:06;101271.38;;;4.82;43.03
7200;BME280;3641;49.082;8.200;2023-04-04T09:48:33;101273.44;;;4.90;44.61
7200;BME280;3641;49.082;8.200;2023-04-04T09:51:03;101271.47;;;4.92;43.02
7200;BME280;3641;49.082;8.200;2023-04-04T09:53:33;101275.00;;;5.04;43.49
7200;BME280;3641;49.082;8.200;2023-04-04T09:56:00;101281.88;;;5.19;44.82
7200;BME280;3641;49.082;8.200;2023-04-04T09:58:29;101279.75;;;5.23;43.42
7200;BME280;3641;49.082;8.200;2023-04-04T10:01:01;101274.72;;;5.18;42.92
7200;BME280;3641;49.082;8.200;2023-04-04T10:03:28;101283.97;;;5.16;43.26
7200;BME280;3641;49.082;8.200;2023-04-04T10:05:58;101285.25;;;5.33;43.47
7200;BME280;3641;49.082;8.200;2023-04-04T10:08:26;101280.59;;;5.35;42.13
7200;BME280;3641;49.082;8.200;2023-04-04T10:10:55;101279.34;;;5.92;43.29
7200;BME280;3641;49.082;8.200;2023-04-04T10:13:22;101280.22;;;6.14;41.97
7200;BME280;3641;49.082;8.200;2023-04-04T10:15:51;101279.88;;;6.28;43.12
7200;BME280;3641;49.082;8.200;2023-04-04T10:18:19;101282.91;;;6.14;41.37
7200;BME280;3641;49.082;8.200;2023-04-04T10:20:48;101276.13;;;6.20;41.29
7200;BME280;3641;49.082;8.200;2023-04-04T10:23:15;101274.56;;;6.48;41.86
7200;BME280;3641;49.082;8.200;2023-04-04T10:25:41;101279.88;;;6.59;39.98
7200;BME280;3641;49.082;8.200;2023-04-04T10:28:08;101275.34;;;6.69;40.36
7200;BME280;3641;49.082;8.200;2023-04-04T10:30:40;101271.69;;;6.80;44.11
7200;BME280;3641;49.082;8.200;2023-04-04T10:33:14;101263.50;;;6.70;41.32
7200;BME280;3641;49.082;8.200;2023-04-04T10:35:48;101267.50;;;6.76;40.62
7200;BME280;3641;49.082;8.200;2023-04-04T10:38:20;101268.72;;;7.03;42.15
7200;BME280;3641;49.082;8.200;2023-04-04T10:40:50;101266.50;;;7.27;43.86
7200;BME280;3641;49.082;8.200;2023-04-04T10:43:24;101263.94;;;7.26;41.30
7200;BME280;3641;49.082;8.200;2023-04-04T10:45:54;101271.09;;;7.56;43.94
7200;BME280;3641;49.082;8.200;2023-04-04T10:48:23;101256.34;;;7.30;40.32
7200;BME280;3641;49.082;8.200;2023-04-04T10:50:51;101257.47;;;7.37;41.51
7200;BME280;3641;49.082;8.200;2023-04-04T10:53:18;101271.66;;;7.50;42.43
7200;BME280;3641;49.082;8.200;2023-04-04T10:55:45;101265.81;;;7.64;41.26
7200;BME280;3641;49.082;8.200;2023-04-04T10:58:12;101251.34;;;7.64;39.17
7200;BME280;3641;49.082;8.200;2023-04-04T11:00:48;101249.91;;;7.70;40.71
7200;BME280;3641;49.082;8.200;2023-04-04T11:03:15;101256.19;;;7.90;40.37
7200;BME280;3641;49.082;8.200;2023-04-04T11:05:43;101253.44;;;8.09;41.75
7200;BME280;3641;49.082;8.200;2023-04-04T11:08:15;101250.13;;;8.15;40.25
7200;BME280;3641;49.082;8.200;2023-04-04T11:10:43;101247.94;;;8.29;40.91
7200;BME280;3641;49.082;8.200;2023-04-04T11:13:12;101232.72;;;8.46;38.76
7200;BME280;3641;49.082;8.200;2023-04-04T11:15:45;101235.97;;;8.59;42.92
7200;BME280;3641;49.082;8.200;2023-04-04T11:18:12;101228.63;;;8.22;40.07
7200;BME280;3641;49.082;8.200;2023-04-04T11:20:41;101219.59;;;8.22;39.54
7200;BME280;3641;49.082;8.200;2023-04-04T11:23:17;101227.16;;;8.28;40.83
7200;BME280;3641;49.082;8.200;2023-04-04T11:25:54;101231.28;;;8.04;39.54
7200;BME280;3641;49.082;8.200;2023-04-04T11:28:26;101233.53;;;8.18;40.70
7200;BME280;3641;49.082;8.200;2023-04-04T11:31:22;101220.00;;;8.36;42.68
7200;BME280;3641;49.082;8.200;2023-04-04T11:34:01;101217.72;;;8.32;39.62
7200;BME280;3641;49.082;8.200;2023-04-04T11:36:50;101224.53;;;8.56;42.51
7200;BME280;3641;49.082;8.200;2023-04-04T11:39:26;101231.22;;;8.61;43.54
7200;BME280;3641;49.082;8.200;2023-04-04T11:41:53;101213.72;;;8.26;41.58
7200;BME280;3641;49.082;8.200;2023-04-04T11:44:22;101218.41;;;8.44;40.75
7200;BME280;3641;49.082;8.200;2023-04-04T11:46:54;101209.19;;;8.17;39.68
7200;BME280;3641;49.082;8.200;2023-04-04T11:49:24;101209.25;;;8.35;40.99
7200;BME280;3641;49.082;8.200;2023-04-04T11:51:51;101211.38;;;8.51;41.00
7200;BME280;3641;49.082;8.200;2023-04-04T11:54:18;101203.94;;;8.43;40.59
7200;BME280;3641;49.082;8.200;2023-04-04T11:56:46;101214.84;;;8.43;42.86
7200;BME280;3641;49.082;8.200;2023-04-04T11:59:16;101211.75;;;8.56;40.85
7200;BME280;3641;49.082;8.200;2023-04-04T12:01:44;101212.88;;;8.63;40.45
7200;BME280;3641;49.082;8.200;2023-04-04T12:04:10;101195.69;;;8.63;39.58
7200;BME280;3641;49.082;8.200;2023-04-04T12:06:37;101194.03;;;8.80;39.91
7200;BME280;3641;49.082;8.200;2023-04-04T12:09:05;101194.47;;;8.75;44.02
7200;BME280;3641;49.082;8.200;2023-04-04T12:11:33;101200.75;;;8.76;43.18
7200;BME280;3641;49.082;8.200;2023-04-04T12:14:00;101184.03;;;8.70;39.63
7200;BME280;3641;49.082;8.200;2023-04-04T12:16:27;101185.69;;;8.81;41.71
7200;BME280;3641;49.082;8.200;2023-04-04T12:18:55;101196.69;;;8.89;40.98
7200;BME280;3641;49.082;8.200;2023-04-04T12:21:22;101186.72;;;8.52;37.53
7200;BME280;3641;49.082;8.200;2023-04-04T12:23:49;101196.34;;;8.75;39.64
7200;BME280;3641;49.082;8.200;2023-04-04T12:26:16;101186.97;;;8.59;40.44
7200;BME280;3641;49.082;8.200;2023-04-04T12:28:43;101187.75;;;8.69;39.27
7200;BME280;3641;49.082;8.200;2023-04-04T12:31:12;101181.00;;;8.73;40.06
7200;BME280;3641;49.082;8.200;2023-04-04T12:33:40;101182.53;;;8.58;37.97
7200;BME280;3641;49.082;8.200;2023-04-04T12:36:07;101179.56;;;8.79;39.57
7200;BME280;3641;49.082;8.200;2023-04-04T12:38:53;101178.69;;;8.79;41.61
7200;BME280;3641;49.082;8.200;2023-04-04T12:41:20;101165.91;;;8.61;37.43
7200;BME280;3641;49.082;8.200;2023-04-04T12:43:47;101173.16;;;8.88;40.01
7200;BME280;3641;49.082;8.200;2023-04-04T12:46:16;101182.69;;;9.02;40.29
7200;BME280;3641;49.082;8.200;2023-04-04T12:48:42;101169.44;;;8.89;36.71
7200;BME280;3641;49.082;8.200;2023-04-04T12:51:09;101169.59;;;8.88;38.62
7200;BME280;3641;49.082;8.200;2023-04-04T12:53:50;101165.78;;;8.81;41.71
7200;BME280;3641;49.082;8.200;2023-04-04T12:56:17;101155.59;;;8.83;41.19
7200;BME280;3641;49.082;8.200;2023-04-04T12:58:45;101161.44;;;8.88;39.43
7200;BME280;3641;49.082;8.200;2023-04-04T13:01:15;101153.81;;;9.09;38.74
7200;BME280;3641;49.082;8.200;2023-04-04T13:03:42;101153.88;;;9.00;38.88
7200;BME280;3641;49.082;8.200;2023-04-04T13:06:14;101146.75;;;8.99;38.21
7200;BME280;3641;49.082;8.200;2023-04-04T13:08:48;101148.84;;;9.05;40.79
7200;BME280;3641;49.082;8.200;2023-04-04T13:11:16;101139.19;;;8.93;37.08
7200;BME280;3641;49.082;8.200;2023-04-04T13:13:42;101149.28;;;9.18;41.27
7200;BME280;3641;49.082;8.200;2023-04-04T13:16:11;101137.09;;;9.22;37.81
7200;BME280;3641;49.082;8.200;2023-04-04T13:18:41;101144.69;;;9.19;38.75
7200;BME280;3641;49.082;8.200;2023-04-04T13:21:10;101138.03;;;9.13;41.30
7200;BME280;3641;49.082;8.200;2023-04-04T13:23:38;101138.50;;;9.08;36.35
7200;BME280;3641;49.082;8.200;2023-04-04T13:26:06;101150.78;;;9.31;39.79